createdAt,value
2022-08-22T00:01:29.059Z,28.10
2022-08-22T00:02:59.807Z,31.10
2022-08-22T00:04:02.399Z,28.10
2022-08-22T00:06:35.227Z,28.10
2022-08-22T00:09:33.129Z,28.00
2022-08-22T00:12:18.783Z,28.00
2022-08-22T00:15:03.895Z,28.00
2022-08-22T00:17:40.151Z,28.00
2022-08-22T00:20:10.935Z,27.90
2022-08-22T00:22:52.050Z,27.90
2022-08-22T00:25:37.243Z,27.90
2022-08-22T00:28:24.991Z,27.90
2022-08-22T00:31:08.137Z,27.80
2022-08-22T00:34:00.347Z,27.80
2022-08-22T00:36:59.113Z,27.80
2022-08-22T00:39:34.615Z,27.80
2022-08-22T00:42:01.516Z,27.70
2022-08-22T00:44:31.310Z,27.70
2022-08-22T00:47:16.332Z,27.70
2022-08-22T00:50:05.417Z,27.70
2022-08-22T00:53:03.191Z,27.70
2022-08-22T00:56:01.226Z,27.60
2022-08-22T00:58:52.560Z,27.70
2022-08-22T01:01:28.594Z,27.60
2022-08-22T01:04:27.053Z,27.60
2022-08-22T01:07:37.799Z,27.60
2022-08-22T01:10:46.856Z,27.60
2022-08-22T01:13:43.359Z,27.50
2022-08-22T01:16:27.296Z,27.50
2022-08-22T01:19:09.744Z,27.50
2022-08-22T01:22:09.803Z,27.50
2022-08-22T01:25:19.329Z,27.50
2022-08-22T01:28:19.859Z,27.50
2022-08-22T01:31:33.304Z,27.50
2022-08-22T01:34:13.043Z,27.40
2022-08-22T01:37:23.467Z,27.40
2022-08-22T01:40:09.807Z,27.40
2022-08-22T01:42:39.898Z,27.40
2022-08-22T01:45:44.460Z,27.40
2022-08-22T01:48:39.208Z,27.30
2022-08-22T01:51:27.355Z,27.30
2022-08-22T01:54:49.611Z,27.30
2022-08-22T01:57:18.701Z,27.30
2022-08-22T01:59:53.636Z,27.30
2022-08-22T02:02:46.419Z,27.30
2022-08-22T02:05:37.140Z,27.20
2022-08-22T02:08:30.438Z,27.20
2022-08-22T02:11:10.491Z,27.20
2022-08-22T02:14:15.134Z,27.20
2022-08-22T02:16:50.655Z,27.20
2022-08-22T02:19:18.805Z,27.20
2022-08-22T02:22:04.555Z,27.10
2022-08-22T02:24:34.698Z,27.20
2022-08-22T02:27:04.791Z,27.20
2022-08-22T02:29:41.251Z,27.10
2022-08-22T02:32:43.626Z,27.10
2022-08-22T02:35:24.577Z,27.10
2022-08-22T02:38:29.371Z,27.00
2022-08-22T02:41:14.128Z,27.00
2022-08-22T02:43:57.137Z,27.00
2022-08-22T02:46:29.823Z,27.00
2022-08-22T02:49:09.342Z,26.90
2022-08-22T02:52:04.525Z,26.90
2022-08-22T02:54:49.061Z,26.90
2022-08-22T02:57:40.365Z,26.90
2022-08-22T03:00:27.758Z,26.90
2022-08-22T03:03:02.973Z,26.90
2022-08-22T03:05:41.444Z,26.90
2022-08-22T03:08:22.451Z,26.80
2022-08-22T03:11:14.994Z,26.80
2022-08-22T03:14:03.056Z,26.80
2022-08-22T03:17:04.455Z,26.80
2022-08-22T03:19:51.103Z,26.80
2022-08-22T03:22:25.548Z,26.80
2022-08-22T03:25:26.616Z,26.80
2022-08-22T03:28:00.194Z,26.80
2022-08-22T03:30:56.181Z,26.80
2022-08-22T03:33:31.743Z,26.80
2022-08-22T03:36:31.498Z,26.70
2022-08-22T03:39:17.491Z,26.70
2022-08-22T03:41:44.694Z,26.70
2022-08-22T03:44:50.656Z,26.70
2022-08-22T03:47:56.019Z,26.70
2022-08-22T03:51:13.847Z,26.70
2022-08-22T03:53:46.435Z,26.70
2022-08-22T03:56:49.990Z,26.70
2022-08-22T03:59:43.098Z,26.70
2022-08-22T04:02:41.950Z,26.70
2022-08-22T04:05:17.708Z,26.70
2022-08-22T04:08:13.046Z,26.70
2022-08-22T04:10:52.071Z,26.70
2022-08-22T04:13:43.966Z,26.70
2022-08-22T04:16:42.065Z,26.70
2022-08-22T04:19:24.257Z,26.70
2022-08-22T04:22:14.075Z,26.70
2022-08-22T04:24:41.112Z,26.70
2022-08-22T04:27:30.066Z,26.70
2022-08-22T04:30:07.063Z,26.60
2022-08-22T04:32:48.932Z,26.60
2022-08-22T04:35:40.642Z,26.60
2022-08-22T04:38:42.876Z,26.60
2022-08-22T04:41:15.359Z,26.60
2022-08-22T04:43:56.554Z,26.60
2022-08-22T04:46:45.663Z,26.60
2022-08-22T04:49:38.791Z,26.60
2022-08-22T04:52:19.152Z,26.60
2022-08-22T04:55:09.922Z,26.60
2022-08-22T04:58:14.671Z,26.60
2022-08-22T05:01:23.303Z,26.50
2022-08-22T05:04:03.077Z,26.50
2022-08-22T05:06:33.904Z,26.50
2022-08-22T05:09:11.897Z,26.50
2022-08-22T05:11:43.376Z,26.50
2022-08-22T05:14:21.403Z,26.50
2022-08-22T05:16:53.223Z,26.50
2022-08-22T05:19:32.071Z,26.50
2022-08-22T05:22:00.898Z,26.50
2022-08-22T05:24:35.238Z,26.50
2022-08-22T05:27:11.371Z,26.50
2022-08-22T05:29:42.890Z,26.50
2022-08-22T05:32:23.024Z,26.50
2022-08-22T05:34:51.707Z,26.50
2022-08-22T05:37:41.139Z,26.60
2022-08-22T05:40:19.724Z,26.60
2022-08-22T05:42:48.614Z,26.60
2022-08-22T05:45:18.211Z,26.60
2022-08-22T05:48:05.964Z,26.60
2022-08-22T05:50:39.725Z,26.60
2022-08-22T05:53:22.440Z,26.60
2022-08-22T05:55:49.523Z,26.60
2022-08-22T05:58:22.059Z,26.70
2022-08-22T06:00:56.907Z,26.70
2022-08-22T06:04:00.121Z,26.70
2022-08-22T06:06:30.040Z,26.80
2022-08-22T06:09:18.687Z,26.80
2022-08-22T06:12:18.227Z,26.80
2022-08-22T06:15:10.483Z,26.80
2022-08-22T06:17:49.670Z,26.90
2022-08-22T06:20:28.773Z,26.90
2022-08-22T06:22:59.419Z,27.00
2022-08-22T06:25:34.812Z,27.00
2022-08-22T06:28:04.130Z,27.00
2022-08-22T06:30:31.923Z,27.00
2022-08-22T06:33:12.892Z,27.10
2022-08-22T06:36:01.610Z,27.10
2022-08-22T06:38:52.057Z,27.10
2022-08-22T06:41:22.106Z,27.10
2022-08-22T06:43:52.772Z,27.10
2022-08-22T06:46:22.302Z,27.20
2022-08-22T06:48:49.853Z,27.20
2022-08-22T06:51:19.447Z,27.20
2022-08-22T06:53:53.629Z,27.20
2022-08-22T06:56:26.431Z,27.20
2022-08-22T06:58:58.536Z,27.30
2022-08-22T07:01:30.811Z,27.30
2022-08-22T07:04:07.462Z,27.30
2022-08-22T07:06:42.056Z,27.30
2022-08-22T07:09:28.733Z,27.30
2022-08-22T07:11:59.361Z,27.30
2022-08-22T07:14:33.200Z,27.40
2022-08-22T07:17:04.321Z,27.40
2022-08-22T07:19:33.867Z,27.40
2022-08-22T07:22:13.400Z,27.40
2022-08-22T07:24:48.523Z,27.40
2022-08-22T07:27:37.486Z,27.40
2022-08-22T07:30:10.754Z,27.40
2022-08-22T07:32:56.795Z,27.40
2022-08-22T07:35:53.170Z,27.40
2022-08-22T07:38:43.080Z,27.40
2022-08-22T07:41:21.976Z,27.40
2022-08-22T07:44:06.445Z,27.40
2022-08-22T07:46:37.705Z,27.40
2022-08-22T07:49:21.312Z,27.40
2022-08-22T07:51:55.229Z,27.50
2022-08-22T07:54:45.536Z,27.50
2022-08-22T07:57:17.591Z,27.50
2022-08-22T07:59:59.561Z,27.50
2022-08-22T08:02:28.179Z,27.50
2022-08-22T08:04:57.543Z,27.50
2022-08-22T08:07:27.631Z,27.50
2022-08-22T08:10:00.070Z,27.50
2022-08-22T08:12:39.849Z,27.50
2022-08-22T08:15:11.985Z,27.50
2022-08-22T08:17:40.052Z,27.60
2022-08-22T08:20:11.563Z,27.60
2022-08-22T08:22:41.173Z,27.60
2022-08-22T08:25:09.023Z,27.60
2022-08-22T08:27:57.352Z,27.60
2022-08-22T08:30:59.507Z,27.60
2022-08-22T08:33:31.927Z,27.70
2022-08-22T08:36:39.649Z,27.60
2022-08-22T08:39:42.582Z,27.70
2022-08-22T08:42:15.499Z,27.70
2022-08-22T08:44:54.532Z,27.70
2022-08-22T08:47:58.708Z,27.70
2022-08-22T08:50:50.289Z,27.80
2022-08-22T08:53:45.203Z,27.80
2022-08-22T08:56:38.286Z,27.80
2022-08-22T08:59:26.212Z,27.80
2022-08-22T09:02:24.997Z,27.80
2022-08-22T09:05:19.663Z,27.80
2022-08-22T09:08:03.243Z,27.80
2022-08-22T09:10:39.431Z,27.80
2022-08-22T09:13:40.725Z,27.80
2022-08-22T09:16:22.473Z,27.90
2022-08-22T09:19:21.400Z,27.90
2022-08-22T09:22:50.637Z,27.80
2022-08-22T09:25:39.201Z,27.90
2022-08-22T09:28:29.273Z,27.90
2022-08-22T09:31:44.961Z,28.00
2022-08-22T09:34:48.636Z,28.00
2022-08-22T09:37:51.697Z,28.00
2022-08-22T09:40:29.278Z,28.00
2022-08-22T09:43:21.185Z,28.00
2022-08-22T09:46:01.927Z,28.00
2022-08-22T09:48:39.742Z,28.00
2022-08-22T09:51:32.624Z,28.00
2022-08-22T09:54:32.873Z,28.00
2022-08-22T09:57:00.737Z,28.00
2022-08-22T10:00:05.185Z,28.00
2022-08-22T10:02:52.505Z,28.10
2022-08-22T10:05:43.581Z,28.10
2022-08-22T10:08:33.321Z,28.10
2022-08-22T10:11:09.734Z,28.10
2022-08-22T10:14:04.520Z,28.10
2022-08-22T10:16:50.386Z,28.10
2022-08-22T10:19:36.655Z,28.20
2022-08-22T10:22:44.458Z,28.20
2022-08-22T10:25:18.578Z,28.20
2022-08-22T10:27:56.772Z,28.20
2022-08-22T10:30:47.184Z,28.30
2022-08-22T10:33:17.038Z,28.30
2022-08-22T10:35:43.992Z,28.30
2022-08-22T10:38:21.703Z,28.40
2022-08-22T10:41:09.926Z,28.40
2022-08-22T10:43:56.558Z,28.50
2022-08-22T10:46:42.171Z,28.50
2022-08-22T10:49:22.473Z,28.50
2022-08-22T10:52:17.009Z,28.50
2022-08-22T10:54:44.016Z,28.50
2022-08-22T10:57:36.361Z,28.50
2022-08-22T11:00:25.620Z,28.50
2022-08-22T11:03:18.688Z,28.60
2022-08-22T11:05:52.051Z,28.60
2022-08-22T11:08:40.397Z,28.60
2022-08-22T11:11:23.821Z,28.70
2022-08-22T11:14:14.145Z,28.70
2022-08-22T11:16:44.224Z,28.70
2022-08-22T11:19:46.859Z,28.70
2022-08-22T11:22:49.553Z,28.70
2022-08-22T11:25:35.844Z,28.80
2022-08-22T11:28:37.928Z,28.90
2022-08-22T11:31:47.098Z,28.80
2022-08-22T11:34:44.823Z,28.90
2022-08-22T11:37:42.867Z,28.90
2022-08-22T11:40:31.682Z,28.90
2022-08-22T11:43:18.557Z,29.00
2022-08-22T11:45:51.550Z,29.00
2022-08-22T11:48:34.258Z,29.00
2022-08-22T11:51:34.525Z,29.00
2022-08-22T11:54:31.241Z,29.00
2022-08-22T11:57:31.021Z,29.00
2022-08-22T12:00:53.265Z,29.10
2022-08-22T12:04:13.993Z,29.10
2022-08-22T12:06:50.253Z,29.10
2022-08-22T12:09:38.805Z,29.10
2022-08-22T12:12:14.741Z,29.20
2022-08-22T12:15:00.263Z,29.20
2022-08-22T12:18:10.141Z,29.20
2022-08-22T12:21:12.556Z,29.30
2022-08-22T12:24:19.285Z,29.30
2022-08-22T12:27:06.513Z,29.40
2022-08-22T12:30:04.391Z,29.50
2022-08-22T12:32:49.258Z,29.50
2022-08-22T12:35:42.580Z,29.50
2022-08-22T12:38:28.040Z,29.50
2022-08-22T12:41:28.063Z,29.60
2022-08-22T12:44:16.035Z,29.60
2022-08-22T12:46:49.916Z,29.60
2022-08-22T12:49:56.511Z,29.60
2022-08-22T12:52:50.466Z,29.60
2022-08-22T12:55:45.756Z,29.60
2022-08-22T12:58:15.630Z,29.60
2022-08-22T13:00:48.103Z,29.70
2022-08-22T13:03:35.247Z,29.70
2022-08-22T13:06:37.847Z,29.80
2022-08-22T13:09:28.557Z,29.80
2022-08-22T13:12:02.623Z,29.80
2022-08-22T13:14:34.058Z,29.90
2022-08-22T13:17:23.743Z,30.00
2022-08-22T13:20:22.469Z,30.00
2022-08-22T13:22:55.619Z,30.00
2022-08-22T13:25:26.668Z,30.10
2022-08-22T13:28:04.520Z,30.10
2022-08-22T13:30:40.749Z,30.10
2022-08-22T13:33:10.265Z,30.20
2022-08-22T13:35:45.352Z,30.20
2022-08-22T13:38:25.870Z,30.20
2022-08-22T13:40:56.676Z,30.30
2022-08-22T13:43:31.664Z,30.30
2022-08-22T13:46:03.171Z,30.40
2022-08-22T13:48:49.835Z,30.40
2022-08-22T13:51:29.336Z,30.50
2022-08-22T13:54:20.294Z,30.50
2022-08-22T13:56:55.035Z,30.50
2022-08-22T13:59:51.060Z,30.60
2022-08-22T14:02:57.447Z,30.70
2022-08-22T14:05:44.645Z,30.70
2022-08-22T14:08:20.898Z,30.80
2022-08-22T14:11:06.631Z,30.90
2022-08-22T14:13:37.613Z,31.00
2022-08-22T14:16:12.587Z,31.00
2022-08-22T14:18:49.352Z,31.10
2022-08-22T14:21:26.103Z,31.20
2022-08-22T14:24:17.008Z,31.30
2022-08-22T14:26:54.831Z,31.40
2022-08-22T14:29:31.689Z,31.50
2022-08-22T14:32:35.136Z,31.60
2022-08-22T14:35:17.033Z,31.70
2022-08-22T14:38:17.221Z,31.90
2022-08-22T14:40:46.490Z,32.00
2022-08-22T14:43:31.312Z,32.10
2022-08-22T14:46:10.130Z,32.20
2022-08-22T14:48:48.693Z,32.30
2022-08-22T14:51:23.509Z,32.30
2022-08-22T14:53:51.443Z,32.40
2022-08-22T14:56:27.587Z,32.50
2022-08-22T14:58:57.867Z,32.70
2022-08-22T15:01:29.991Z,32.70
2022-08-22T15:04:11.124Z,32.90
2022-08-22T15:07:05.050Z,33.00
2022-08-22T15:09:37.373Z,33.20
2022-08-22T15:12:32.168Z,33.50
2022-08-22T15:15:06.876Z,33.80
2022-08-22T15:18:01.125Z,34.40
2022-08-22T15:20:35.648Z,35.20
2022-08-22T15:23:15.372Z,36.10
2022-08-22T15:25:47.000Z,37.10
2022-08-22T15:28:20.242Z,37.80
2022-08-22T15:31:05.696Z,38.40
2022-08-22T15:33:34.748Z,39.00
2022-08-22T15:36:11.248Z,39.40
2022-08-22T15:38:48.079Z,39.80
2022-08-22T15:41:35.912Z,40.20
2022-08-22T15:44:14.860Z,40.40
2022-08-22T15:47:06.312Z,40.50
2022-08-22T15:49:50.757Z,40.60
2022-08-22T15:53:07.277Z,40.80
2022-08-22T15:55:35.807Z,40.80
2022-08-22T15:58:13.165Z,40.50
2022-08-22T16:01:02.727Z,40.10
2022-08-22T16:03:32.939Z,39.50
2022-08-22T16:06:09.735Z,38.80
2022-08-22T16:08:36.702Z,38.20
2022-08-22T16:11:03.735Z,37.80
2022-08-22T16:13:30.832Z,37.50
2022-08-22T16:16:32.340Z,37.20
2022-08-22T16:18:59.314Z,37.00
2022-08-22T16:21:26.313Z,36.90
2022-08-22T16:23:56.844Z,37.10
2022-08-22T16:26:29.607Z,37.60
2022-08-22T16:28:59.660Z,38.10
2022-08-22T16:31:48.498Z,38.50
2022-08-22T16:34:20.551Z,38.70
2022-08-22T16:37:18.127Z,39.00
2022-08-22T16:39:52.281Z,39.10
2022-08-22T16:42:22.497Z,39.20
2022-08-22T16:45:04.566Z,39.20
2022-08-22T16:47:32.730Z,39.10
2022-08-22T16:49:59.766Z,39.00
2022-08-22T16:52:26.842Z,39.00
2022-08-22T16:54:58.812Z,38.90
2022-08-22T16:57:59.314Z,38.80
2022-08-22T17:01:03.024Z,38.60
2022-08-22T17:03:36.109Z,38.50
2022-08-22T17:06:18.183Z,38.50
2022-08-22T17:09:44.731Z,38.50
2022-08-22T17:12:23.728Z,38.40
2022-08-22T17:14:56.634Z,38.20
2022-08-22T17:17:55.933Z,37.90
2022-08-22T17:20:40.329Z,37.60
2022-08-22T17:23:07.303Z,37.40
2022-08-22T17:25:52.773Z,37.10
2022-08-22T17:28:42.442Z,36.90
2022-08-22T17:31:39.442Z,36.60
2022-08-22T17:34:36.079Z,36.30
2022-08-22T17:37:16.867Z,36.10
2022-08-22T17:40:03.464Z,35.90
2022-08-22T17:42:42.910Z,35.70
2022-08-22T17:45:31.092Z,35.60
2022-08-22T17:48:12.396Z,35.40
2022-08-22T17:50:45.152Z,35.30
2022-08-22T17:53:33.625Z,35.20
2022-08-22T17:56:39.113Z,35.00
2022-08-22T17:59:21.082Z,34.80
2022-08-22T18:02:00.895Z,34.70
2022-08-22T18:04:49.761Z,34.60
2022-08-22T18:07:31.615Z,34.40
2022-08-22T18:10:09.096Z,34.30
2022-08-22T18:13:07.146Z,34.20
2022-08-22T18:15:44.120Z,34.00
2022-08-22T18:18:30.143Z,33.90
2022-08-22T18:21:18.564Z,33.80
2022-08-22T18:23:51.870Z,33.70
2022-08-22T18:27:00.161Z,33.60
2022-08-22T18:29:43.431Z,33.50
2022-08-22T18:32:29.242Z,33.40
2022-08-22T18:35:16.844Z,33.30
2022-08-22T18:37:45.083Z,33.30
2022-08-22T18:40:32.505Z,33.20
2022-08-22T18:43:05.814Z,33.20
2022-08-22T18:45:48.151Z,33.10
2022-08-22T18:48:34.258Z,33.10
2022-08-22T18:51:25.070Z,33.00
2022-08-22T18:53:55.020Z,32.90
2022-08-22T18:56:45.440Z,32.90
2022-08-22T18:59:18.497Z,32.80
2022-08-22T19:02:21.892Z,32.70
2022-08-22T19:05:12.177Z,32.70
2022-08-22T19:07:59.901Z,32.70
2022-08-22T19:11:00.807Z,32.50
2022-08-22T19:14:10.613Z,32.50
2022-08-22T19:17:15.624Z,32.50
2022-08-22T19:20:18.078Z,32.40
2022-08-22T19:22:51.164Z,32.40
2022-08-22T19:25:28.367Z,32.30
2022-08-22T19:28:10.443Z,32.30
2022-08-22T19:30:48.084Z,32.20
2022-08-22T19:33:19.586Z,32.20
2022-08-22T19:35:54.702Z,32.10
2022-08-22T19:38:56.407Z,32.10
2022-08-22T19:41:57.070Z,32.00
2022-08-22T19:44:27.152Z,32.00
2022-08-22T19:47:03.801Z,31.90
2022-08-22T19:49:35.927Z,31.90
2022-08-22T19:52:25.897Z,31.90
2022-08-22T19:55:03.961Z,31.90
2022-08-22T19:57:52.186Z,31.90
2022-08-22T20:00:47.485Z,31.80
2022-08-22T20:03:42.426Z,31.80
2022-08-22T20:06:43.832Z,31.80
2022-08-22T20:09:11.765Z,31.80
2022-08-22T20:11:42.367Z,31.70
2022-08-22T20:14:30.561Z,31.70
2022-08-22T20:17:10.422Z,31.60
2022-08-22T20:19:42.485Z,31.60
2022-08-22T20:22:30.616Z,31.50
2022-08-22T20:25:41.448Z,31.50
2022-08-22T20:28:33.272Z,31.50
2022-08-22T20:31:05.152Z,31.50
2022-08-22T20:33:39.054Z,31.40
2022-08-22T20:36:27.242Z,31.40
2022-08-22T20:38:59.810Z,31.30
2022-08-22T20:41:40.388Z,31.30
2022-08-22T20:44:12.659Z,31.20
2022-08-22T20:47:02.099Z,31.20
2022-08-22T20:49:37.441Z,31.10
2022-08-22T20:52:08.377Z,31.00
2022-08-22T20:54:41.141Z,31.00
2022-08-22T20:57:18.228Z,31.00
2022-08-22T20:59:57.092Z,30.90
2022-08-22T21:02:44.194Z,30.90
2022-08-22T21:05:14.338Z,30.90
2022-08-22T21:07:44.050Z,30.80
2022-08-22T21:10:46.700Z,30.70
2022-08-22T21:13:22.534Z,30.70
2022-08-22T21:15:56.105Z,30.70
2022-08-22T21:18:38.465Z,30.60
2022-08-22T21:21:25.736Z,30.50
2022-08-22T21:24:03.729Z,30.50
2022-08-22T21:26:50.875Z,30.50
2022-08-22T21:29:23.269Z,30.40
2022-08-22T21:31:59.048Z,30.40
2022-08-22T21:34:41.332Z,30.40
2022-08-22T21:37:48.716Z,30.30
2022-08-22T21:40:23.833Z,30.30
2022-08-22T21:43:07.516Z,30.30
2022-08-22T21:45:44.417Z,30.20
2022-08-22T21:48:35.059Z,30.20
2022-08-22T21:51:22.343Z,30.20
2022-08-22T21:53:49.676Z,30.10
2022-08-22T21:56:36.760Z,30.00
2022-08-22T21:59:50.886Z,30.00
2022-08-22T22:02:27.875Z,30.00
2022-08-22T22:04:55.011Z,29.90
2022-08-22T22:07:24.597Z,29.90
2022-08-22T22:09:54.468Z,29.90
2022-08-22T22:12:23.427Z,29.80
2022-08-22T22:14:51.084Z,29.80
2022-08-22T22:17:21.160Z,29.80
2022-08-22T22:19:48.434Z,29.80
2022-08-22T22:22:15.544Z,29.80
2022-08-22T22:24:42.566Z,29.70
2022-08-22T22:27:12.749Z,29.70
2022-08-22T22:29:43.648Z,29.70
2022-08-22T22:32:10.755Z,29.60
2022-08-22T22:34:40.304Z,29.60
2022-08-22T22:37:08.741Z,29.60
2022-08-22T22:39:36.840Z,29.60
2022-08-22T22:42:06.606Z,29.60
2022-08-22T22:44:33.697Z,29.50
2022-08-22T22:47:02.402Z,29.50
2022-08-22T22:49:31.043Z,29.50
2022-08-22T22:51:59.732Z,29.50
2022-08-22T22:54:27.588Z,29.40
2022-08-22T22:56:57.050Z,29.50
2022-08-22T22:59:26.011Z,29.50
2022-08-22T23:02:15.268Z,29.40
2022-08-22T23:04:46.476Z,29.40
2022-08-22T23:07:14.922Z,29.40
2022-08-22T23:09:42.819Z,29.30
2022-08-22T23:12:13.935Z,29.30
2022-08-22T23:14:41.051Z,29.30
2022-08-22T23:17:08.435Z,29.20
2022-08-22T23:19:36.138Z,29.20
2022-08-22T23:22:03.205Z,29.10
2022-08-22T23:24:31.220Z,29.00
2022-08-22T23:27:01.424Z,29.00
2022-08-22T23:29:29.139Z,29.00
2022-08-22T23:32:01.807Z,28.90
2022-08-22T23:34:35.407Z,28.90
2022-08-22T23:37:06.873Z,28.90
2022-08-22T23:39:36.114Z,28.90
2022-08-22T23:42:03.313Z,28.80
2022-08-22T23:44:32.451Z,28.80
2022-08-22T23:47:01.003Z,28.70
2022-08-22T23:49:29.658Z,28.70
2022-08-22T23:51:56.987Z,28.70
2022-08-22T23:54:25.158Z,28.70
2022-08-22T23:56:55.473Z,28.70
2022-08-22T23:59:28.071Z,28.70
